sensor_id;sensor_type;location;lat;lon;timestamp;pressure;altitude;pressure_sealevel;temperature;humidity
5988;BME280;3021;51.000;6.980;2024-03-07T00:01:57;66865.22;;;5.05;100.00
5988;BME280;3021;51.000;6.980;2024-03-07T00:04:22;66873.44;;;5.15;100.00
5988;BME280;3021;51.000;6.980;2024-03-07T00:06:47;66887.81;;;5.28;100.00
5988;BME280;3021;51.000;6.980;2024-03-07T00:09:13;66881.31;;;5.19;100.00
5988;BME280;3021;51.000;6.980;2024-03-07T00:11:40;66880.16;;;5.18;100.00
5988;BME280;3021;51.000;6.980;2024-03-07T00:14:06;66874.00;;;5.15;100.00
5988;BME280;3021;51.000;6.980;2024-03-07T00:16:32;66859.63;;;5.02;100.00
5988;BME280;3021;51.000;6.980;2024-03-07T00:18:59;66852.56;;;4.94;100.00
5988;BME280;3021;51.000;6.980;2024-03-07T00:21:24;66849.13;;;4.91;100.00
5988;BME280;3021;51.000;6.980;2024-03-07T00:23:50;66830.31;;;4.76;100.00
5988;BME280;3021;51.000;6.980;2024-03-07T00:26:15;66829.72;;;4.76;100.00
5988;BME280;3021;51.000;6.980;2024-03-07T00:28:40;66838.75;;;4.81;100.00
5988;BME280;3021;51.000;6.980;2024-03-07T00:31:06;66833.59;;;4.77;100.00
5988;BME280;3021;51.000;6.980;2024-03-07T00:33:33;66805.00;;;4.54;100.00
5988;BME280;3021;51.000;6.980;2024-03-07T00:35:58;66807.72;;;4.54;100.00
5988;BME280;3021;51.000;6.980;2024-03-07T00:38:23;66802.56;;;4.49;100.00
5988;BME280;3021;51.000;6.980;2024-03-07T00:40:48;66782.03;;;4.33;100.00
5988;BME280;3021;51.000;6.980;2024-03-07T00:43:14;66795.63;;;4.43;100.00
5988;BME280;3021;51.000;6.980;2024-03-07T00:45:40;66794.66;;;4.44;100.00
5988;BME280;3021;51.000;6.980;2024-03-07T00:48:05;66800.84;;;4.47;100.00
5988;BME280;3021;51.000;6.980;2024-03-07T00:50:30;66819.22;;;4.64;100.00
5988;BME280;3021;51.000;6.980;2024-03-07T00:52:57;66811.91;;;4.60;100.00
5988;BME280;3021;51.000;6.980;2024-03-07T00:55:22;66811.34;;;4.59;100.00
5988;BME280;3021;51.000;6.980;2024-03-07T00:57:48;66806.56;;;4.53;100.00
5988;BME280;3021;51.000;6.980;2024-03-07T01:00:14;66795.63;;;4.43;100.00
5988;BME280;3021;51.000;6.980;2024-03-07T01:02:42;66775.13;;;4.27;100.00
5988;BME280;3021;51.000;6.980;2024-03-07T01:05:12;66781.69;;;4.28;100.00
5988;BME280;3021;51.000;6.980;2024-03-07T01:07:40;66773.41;;;4.25;100.00
5988;BME280;3021;51.000;6.980;2024-03-07T01:10:06;66750.41;;;4.05;100.00
5988;BME280;3021;51.000;6.980;2024-03-07T01:12:34;66726.28;;;3.83;100.00
5988;BME280;3021;51.000;6.980;2024-03-07T01:14:59;66722.69;;;3.77;100.00
5988;BME280;3021;51.000;6.980;2024-03-07T01:17:25;66712.34;;;3.68;100.00
5988;BME280;3021;51.000;6.980;2024-03-07T01:19:51;66706.19;;;3.65;100.00
5988;BME280;3021;51.000;6.980;2024-03-07T01:22:16;66711.94;;;3.70;100.00
5988;BME280;3021;51.000;6.980;2024-03-07T01:24:42;66699.28;;;3.59;100.00
5988;BME280;3021;51.000;6.980;2024-03-07T01:27:08;66703.72;;;3.60;100.00
5988;BME280;3021;51.000;6.980;2024-03-07T01:29:34;66692.38;;;3.53;100.00
5988;BME280;3021;51.000;6.980;2024-03-07T01:32:00;66682.22;;;3.46;100.00
5988;BME280;3021;51.000;6.980;2024-03-07T01:34:25;66690.50;;;3.49;100.00
5988;BME280;3021;51.000;6.980;2024-03-07T01:36:50;66687.06;;;3.45;100.00
5988;BME280;3021;51.000;6.980;2024-03-07T01:39:16;66689.94;;;3.48;100.00
5988;BME280;3021;51.000;6.980;2024-03-07T01:41:41;66684.94;;;3.46;100.00
5988;BME280;3021;51.000;6.980;2024-03-07T01:44:06;66695.09;;;3.53;100.00
5988;BME280;3021;51.000;6.980;2024-03-07T01:46:32;66692.81;;;3.51;100.00
5988;BME280;3021;51.000;6.980;2024-03-07T01:48:58;66689.53;;;3.50;100.00
5988;BME280;3021;51.000;6.980;2024-03-07T01:51:24;66700.28;;;3.57;100.00
5988;BME280;3021;51.000;6.980;2024-03-07T01:53:51;66692.38;;;3.53;100.00
5988;BME280;3021;51.000;6.980;2024-03-07T01:56:17;66690.81;;;3.54;100.00
5988;BME280;3021;51.000;6.980;2024-03-07T01:58:45;66690.50;;;3.49;100.00
5988;BME280;3021;51.000;6.980;2024-03-07T02:01:11;66692.25;;;3.50;100.00
5988;BME280;3021;51.000;6.980;2024-03-07T02:03:39;66710.03;;;3.66;100.00
5988;BME280;3021;51.000;6.980;2024-03-07T02:06:05;66694.69;;;3.55;100.00
5988;BME280;3021;51.000;6.980;2024-03-07T02:08:30;66683.06;;;3.42;100.00
5988;BME280;3021;51.000;6.980;2024-03-07T02:10:57;66704.72;;;3.59;100.00
5988;BME280;3021;51.000;6.980;2024-03-07T02:13:23;66686.50;;;3.45;100.00
5988;BME280;3021;51.000;6.980;2024-03-07T02:15:48;66690.09;;;3.51;100.00
5988;BME280;3021;51.000;6.980;2024-03-07T02:18:13;66696.25;;;3.54;100.00
5988;BME280;3021;51.000;6.980;2024-03-07T02:20:43;66703.13;;;3.60;100.00
5988;BME280;3021;51.000;6.980;2024-03-07T02:23:09;66695.69;;;3.53;100.00
5988;BME280;3021;51.000;6.980;2024-03-07T02:25:34;66709.06;;;3.68;100.00
5988;BME280;3021;51.000;6.980;2024-03-07T02:28:05;66695.09;;;3.53;100.00
5988;BME280;3021;51.000;6.980;2024-03-07T02:30:31;66674.59;;;3.37;100.00
5988;BME280;3021;51.000;6.980;2024-03-07T02:32:59;66685.50;;;3.46;100.00
5988;BME280;3021;51.000;6.980;2024-03-07T02:35:32;66697.97;;;3.55;100.00
5988;BME280;3021;51.000;6.980;2024-03-07T02:37:59;66677.88;;;3.37;100.00
5988;BME280;3021;51.000;6.980;2024-03-07T02:40:24;66677.28;;;3.37;100.00
5988;BME280;3021;51.000;6.980;2024-03-07T02:42:49;66660.06;;;3.21;100.00
5988;BME280;3021;51.000;6.980;2024-03-07T02:45:15;66668.84;;;3.32;100.00
5988;BME280;3021;51.000;6.980;2024-03-07T02:47:41;66680.34;;;3.42;100.00
5988;BME280;3021;51.000;6.980;2024-03-07T02:50:08;66678.03;;;3.40;100.00
5988;BME280;3021;51.000;6.980;2024-03-07T02:52:34;66688.38;;;3.49;100.00
5988;BME280;3021;51.000;6.980;2024-03-07T02:54:59;66676.91;;;3.39;100.00
5988;BME280;3021;51.000;6.980;2024-03-07T02:57:25;66672.13;;;3.32;100.00
5988;BME280;3021;51.000;6.980;2024-03-07T02:59:50;66665.09;;;3.23;100.00
5988;BME280;3021;51.000;6.980;2024-03-07T03:02:16;66649.19;;;3.11;100.00
5988;BME280;3021;51.000;6.980;2024-03-07T03:04:41;66639.56;;;3.05;100.00
5988;BME280;3021;51.000;6.980;2024-03-07T03:07:06;66634.41;;;3.01;100.00
5988;BME280;3021;51.000;6.980;2024-03-07T03:09:32;66629.06;;;2.93;100.00
5988;BME280;3021;51.000;6.980;2024-03-07T03:11:58;66613.75;;;2.82;100.00
5988;BME280;3021;51.000;6.980;2024-03-07T03:14:24;66607.44;;;2.76;100.00
5988;BME280;3021;51.000;6.980;2024-03-07T03:16:49;66606.69;;;2.73;100.00
5988;BME280;3021;51.000;6.980;2024-03-07T03:19:15;66598.66;;;2.66;100.00
5988;BME280;3021;51.000;6.980;2024-03-07T03:21:40;66591.94;;;2.63;100.00
5988;BME280;3021;51.000;6.980;2024-03-07T03:24:06;66591.03;;;2.57;100.00
5988;BME280;3021;51.000;6.980;2024-03-07T03:26:32;66584.88;;;2.54;100.00
5988;BME280;3021;51.000;6.980;2024-03-07T03:28:58;66585.88;;;2.52;100.00
5988;BME280;3021;51.000;6.980;2024-03-07T03:31:23;66583.59;;;2.50;100.00
5988;BME280;3021;51.000;6.980;2024-03-07T03:33:49;66578.56;;;2.48;100.00
5988;BME280;3021;51.000;6.980;2024-03-07T03:36:16;66576.84;;;2.47;100.00
5988;BME280;3021;51.000;6.980;2024-03-07T03:38:41;66581.28;;;2.48;100.00
5988;BME280;3021;51.000;6.980;2024-03-07T03:41:06;66577.28;;;2.45;100.00
5988;BME280;3021;51.000;6.980;2024-03-07T03:43:32;66571.84;;;2.45;100.00
5988;BME280;3021;51.000;6.980;2024-03-07T03:45:57;66575.69;;;2.46;100.00
5988;BME280;3021;51.000;6.980;2024-03-07T03:48:22;66584.16;;;2.51;100.00
5988;BME280;3021;51.000;6.980;2024-03-07T03:50:48;66579.56;;;2.47;100.00
5988;BME280;3021;51.000;6.980;2024-03-07T03:53:13;66565.53;;;2.39;100.00
5988;BME280;3021;51.000;6.980;2024-03-07T03:55:38;66564.22;;;2.35;100.00
5988;BME280;3021;51.000;6.980;2024-03-07T03:58:04;66562.50;;;2.34;100.00
5988;BME280;3021;51.000;6.980;2024-03-07T04:00:30;66543.56;;;2.17;100.00
5988;BME280;3021;51.000;6.980;2024-03-07T04:02:56;66536.13;;;2.10;100.00
5988;BME280;3021;51.000;6.980;2024-03-07T04:05:21;66531.13;;;2.08;100.00
5988;BME280;3021;51.000;6.980;2024-03-07T04:07:47;66521.94;;;2.00;100.00
5988;BME280;3021;51.000;6.980;2024-03-07T04:10:15;66518.50;;;1.97;100.00
5988;BME280;3021;51.000;6.980;2024-03-07T04:12:41;66527.50;;;2.02;100.00
5988;BME280;3021;51.000;6.980;2024-03-07T04:15:15;66529.66;;;2.02;100.00
5988;BME280;3021;51.000;6.980;2024-03-07T04:17:44;66527.94;;;2.00;100.00
5988;BME280;3021;51.000;6.980;2024-03-07T04:20:11;66523.91;;;1.97;100.00
5988;BME280;3021;51.000;6.980;2024-03-07T04:22:37;66524.66;;;2.00;100.00
5988;BME280;3021;51.000;6.980;2024-03-07T04:25:07;66517.19;;;1.93;100.00
5988;BME280;3021;51.000;6.980;2024-03-07T04:27:33;66515.63;;;1.94;100.00
5988;BME280;3021;51.000;6.980;2024-03-07T04:30:02;66515.47;;;1.92;100.00
5988;BME280;3021;51.000;6.980;2024-03-07T04:32:28;66526.38;;;2.01;100.00
5988;BME280;3021;51.000;6.980;2024-03-07T04:34:54;66521.94;;;2.00;100.00
5988;BME280;3021;51.000;6.980;2024-03-07T04:37:22;66522.34;;;1.98;100.00
5988;BME280;3021;51.000;6.980;2024-03-07T04:39:47;66520.63;;;1.96;100.00
5988;BME280;3021;51.000;6.980;2024-03-07T04:42:12;66522.75;;;1.96;100.00
5988;BME280;3021;51.000;6.980;2024-03-07T04:44:38;66518.91;;;1.95;100.00
5988;BME280;3021;51.000;6.980;2024-03-07T04:47:04;66519.91;;;1.93;100.00
5988;BME280;3021;51.000;6.980;2024-03-07T04:49:32;66515.47;;;1.92;100.00
5988;BME280;3021;51.000;6.980;2024-03-07T04:51:59;66514.72;;;1.88;100.00
5988;BME280;3021;51.000;6.980;2024-03-07T04:54:25;66478.53;;;1.63;100.00
5988;BME280;3021;51.000;6.980;2024-03-07T04:56:52;66489.66;;;1.68;100.00
5988;BME280;3021;51.000;6.980;2024-03-07T04:59:18;66491.97;;;1.70;100.00
5988;BME280;3021;51.000;6.980;2024-03-07T05:01:45;66491.38;;;1.70;100.00
5988;BME280;3021;51.000;6.980;2024-03-07T05:04:15;66497.13;;;1.75;100.00
5988;BME280;3021;51.000;6.980;2024-03-07T05:06:41;66497.84;;;1.78;100.00
5988;BME280;3021;51.000;6.980;2024-03-07T05:09:08;66498.44;;;1.79;100.00
5988;BME280;3021;51.000;6.980;2024-03-07T05:11:34;66506.13;;;1.81;100.00
5988;BME280;3021;51.000;6.980;2024-03-07T05:14:00;66504.00;;;1.81;100.00
5988;BME280;3021;51.000;6.980;2024-03-07T05:16:27;66508.19;;;1.87;100.00
5988;BME280;3021;51.000;6.980;2024-03-07T05:18:53;66517.94;;;1.96;100.00
5988;BME280;3021;51.000;6.980;2024-03-07T05:21:18;66534.81;;;2.06;100.00
5988;BME280;3021;51.000;6.980;2024-03-07T05:24:02;66550.47;;;2.23;100.00
5988;BME280;3021;51.000;6.980;2024-03-07T05:26:31;66562.50;;;2.34;100.00
5988;BME280;3021;51.000;6.980;2024-03-07T05:29:05;66568.47;;;2.34;100.00
5988;BME280;3021;51.000;6.980;2024-03-07T05:31:34;66567.09;;;2.38;100.00
5988;BME280;3021;51.000;6.980;2024-03-07T05:34:00;66556.19;;;2.28;100.00
5988;BME280;3021;51.000;6.980;2024-03-07T05:36:28;66555.63;;;2.28;100.00
5988;BME280;3021;51.000;6.980;2024-03-07T05:38:54;66562.50;;;2.34;100.00
5988;BME280;3021;51.000;6.980;2024-03-07T05:41:19;66568.81;;;2.39;100.00
5988;BME280;3021;51.000;6.980;2024-03-07T05:43:44;66563.66;;;2.35;100.00
5988;BME280;3021;51.000;6.980;2024-03-07T05:46:10;66565.38;;;2.36;100.00
5988;BME280;3021;51.000;6.980;2024-03-07T05:48:36;66569.81;;;2.38;100.00
5988;BME280;3021;51.000;6.980;2024-03-07T05:51:02;66581.59;;;2.53;100.00
5988;BME280;3021;51.000;6.980;2024-03-07T05:53:27;66580.28;;;2.50;100.00
5988;BME280;3021;51.000;6.980;2024-03-07T05:55:53;66581.28;;;2.48;100.00
5988;BME280;3021;51.000;6.980;2024-03-07T05:58:18;66583.72;;;2.53;100.00
5988;BME280;3021;51.000;6.980;2024-03-07T06:00:47;66588.91;;;2.57;100.00
5988;BME280;3021;51.000;6.980;2024-03-07T06:03:18;66587.19;;;2.56;100.00
5988;BME280;3021;51.000;6.980;2024-03-07T06:05:48;66582.00;;;2.51;100.00
5988;BME280;3021;51.000;6.980;2024-03-07T06:08:18;66584.88;;;2.54;100.00
5988;BME280;3021;51.000;6.980;2024-03-07T06:10:44;66583.31;;;2.55;100.00
5988;BME280;3021;51.000;6.980;2024-03-07T06:13:10;66575.56;;;2.43;100.00
5988;BME280;3021;51.000;6.980;2024-03-07T06:15:39;66564.97;;;2.38;100.00
5988;BME280;3021;51.000;6.980;2024-03-07T06:18:05;66566.38;;;2.35;100.00
5988;BME280;3021;51.000;6.980;2024-03-07T06:20:33;66569.81;;;2.38;100.00
5988;BME280;3021;51.000;6.980;2024-03-07T06:23:00;66577.00;;;2.49;100.00
5988;BME280;3021;51.000;6.980;2024-03-07T06:25:28;66574.56;;;2.45;100.00
5988;BME280;3021;51.000;6.980;2024-03-07T06:28:02;66577.84;;;2.45;100.00
5988;BME280;3021;51.000;6.980;2024-03-07T06:30:35;66588.66;;;2.62;100.00
5988;BME280;3021;51.000;6.980;2024-03-07T06:33:01;66587.34;;;2.58;100.00
5988;BME280;3021;51.000;6.980;2024-03-07T06:35:26;66597.09;;;2.67;100.00
5988;BME280;3021;51.000;6.980;2024-03-07T06:37:52;66601.53;;;2.69;100.00
5988;BME280;3021;51.000;6.980;2024-03-07T06:40:17;66610.69;;;2.77;100.00
5988;BME280;3021;51.000;6.980;2024-03-07T06:42:46;66614.88;;;2.83;100.00
5988;BME280;3021;51.000;6.980;2024-03-07T06:45:11;66624.22;;;2.94;100.00
5988;BME280;3021;51.000;6.980;2024-03-07T06:47:37;66649.19;;;3.11;100.00
5988;BME280;3021;51.000;6.980;2024-03-07T06:50:03;66652.94;;;3.20;100.00
5988;BME280;3021;51.000;6.980;2024-03-07T06:52:28;66655.63;;;3.20;100.00
5988;BME280;3021;51.000;6.980;2024-03-07T06:54:54;66678.28;;;3.35;100.00
5988;BME280;3021;51.000;6.980;2024-03-07T06:57:19;66699.28;;;3.59;100.00
5988;BME280;3021;51.000;6.980;2024-03-07T06:59:44;66730.88;;;3.87;100.00
5988;BME280;3021;51.000;6.980;2024-03-07T07:02:10;66756.56;;;4.08;100.00
5988;BME280;3021;51.000;6.980;2024-03-07T07:04:35;66778.56;;;4.30;100.00
5988;BME280;3021;51.000;6.980;2024-03-07T07:07:07;66794.50;;;4.42;100.00
5988;BME280;3021;51.000;6.980;2024-03-07T07:09:35;66823.81;;;4.68;100.00
5988;BME280;3021;51.000;6.980;2024-03-07T07:12:04;66851.00;;;4.95;100.00
5988;BME280;3021;51.000;6.980;2024-03-07T07:14:30;66842.78;;;4.85;100.00
5988;BME280;3021;51.000;6.980;2024-03-07T07:16:55;66830.31;;;4.76;100.00
5988;BME280;3021;51.000;6.980;2024-03-07T07:19:25;66852.16;;;4.96;100.00
5988;BME280;3021;51.000;6.980;2024-03-07T07:21:50;66844.84;;;4.92;100.00
5988;BME280;3021;51.000;6.980;2024-03-07T07:24:19;66867.69;;;5.10;100.00
5988;BME280;3021;51.000;6.980;2024-03-07T07:26:46;66911.25;;;5.46;100.00
5988;BME280;3021;51.000;6.980;2024-03-07T07:29:12;66952.69;;;5.83;100.00
5988;BME280;3021;51.000;6.980;2024-03-07T07:31:37;66960.88;;;5.93;100.00
5988;BME280;3021;51.000;6.980;2024-03-07T07:34:02;66954.13;;;5.89;100.00
5988;BME280;3021;51.000;6.980;2024-03-07T07:36:29;67010.00;;;6.39;100.00
5988;BME280;3021;51.000;6.980;2024-03-07T07:38:55;66954.69;;;5.90;100.00
5988;BME280;3021;51.000;6.980;2024-03-07T07:41:20;67146.94;;;7.59;100.00
5988;BME280;3021;51.000;6.980;2024-03-07T07:43:45;67277.88;;;8.76;100.00
5988;BME280;3021;51.000;6.980;2024-03-07T07:46:10;67298.38;;;8.99;100.00
5988;BME280;3021;51.000;6.980;2024-03-07T07:48:36;67432.75;;;10.17;100.00
5988;BME280;3021;51.000;6.980;2024-03-07T07:51:01;67490.53;;;10.68;100.00
5988;BME280;3021;51.000;6.980;2024-03-07T07:53:26;67480.16;;;10.59;100.00
5988;BME280;3021;51.000;6.980;2024-03-07T07:55:52;67568.75;;;11.40;100.00
5988;BME280;3021;51.000;6.980;2024-03-07T07:58:18;67744.50;;;12.94;100.00
5988;BME280;3021;51.000;6.980;2024-03-07T08:00:43;67927.94;;;14.62;100.00
5988;BME280;3021;51.000;6.980;2024-03-07T08:03:09;67760.75;;;13.09;100.00
5988;BME280;3021;51.000;6.980;2024-03-07T08:05:36;67815.94;;;13.60;100.00
5988;BME280;3021;51.000;6.980;2024-03-07T08:08:04;67869.09;;;14.05;100.00
5988;BME280;3021;51.000;6.980;2024-03-07T08:10:32;67678.41;;;12.33;100.00
5988;BME280;3021;51.000;6.980;2024-03-07T08:12:58;67742.78;;;12.93;100.00
5988;BME280;3021;51.000;6.980;2024-03-07T08:15:25;67545.44;;;11.17;100.00
5988;BME280;3021;51.000;6.980;2024-03-07T08:17:51;67722.66;;;12.77;100.00
5988;BME280;3021;51.000;6.980;2024-03-07T08:20:19;67927.19;;;14.59;100.00
5988;BME280;3021;51.000;6.980;2024-03-07T08:22:46;67785.63;;;13.31;100.00
5988;BME280;3021;51.000;6.980;2024-03-07T08:25:13;67970.09;;;14.97;100.00
5988;BME280;3021;51.000;6.980;2024-03-07T08:27:40;68017.69;;;15.40;100.00
5988;BME280;3021;51.000;6.980;2024-03-07T08:30:07;67800.28;;;13.46;100.00
5988;BME280;3021;51.000;6.980;2024-03-07T08:32:47;67778.38;;;13.29;100.00
5988;BME280;3021;51.000;6.980;2024-03-07T08:35:13;67909.09;;;14.41;100.00
5988;BME280;3021;51.000;6.980;2024-03-07T08:37:42;67904.00;;;14.39;100.00
5988;BME280;3021;51.000;6.980;2024-03-07T08:40:08;67776.94;;;13.23;100.00
5988;BME280;3021;51.000;6.980;2024-03-07T08:42:44;67866.31;;;14.05;100.00
5988;BME280;3021;51.000;6.980;2024-03-07T08:45:10;67654.50;;;12.19;100.00
5988;BME280;3021;51.000;6.980;2024-03-07T08:47:36;67579.00;;;11.47;100.00
5988;BME280;3021;51.000;6.980;2024-03-07T08:50:02;67548.94;;;11.20;100.00
5988;BME280;3021;51.000;6.980;2024-03-07T08:52:31;67827.50;;;13.71;100.00
5988;BME280;3021;51.000;6.980;2024-03-07T08:54:57;67954.59;;;14.86;100.00
5988;BME280;3021;51.000;6.980;2024-03-07T08:57:22;67953.88;;;14.83;100.00
5988;BME280;3021;51.000;6.980;2024-03-07T08:59:48;67765.94;;;13.13;100.00
5988;BME280;3021;51.000;6.980;2024-03-07T09:02:14;67706.44;;;12.63;100.00
5988;BME280;3021;51.000;6.980;2024-03-07T09:04:39;67792.75;;;13.40;100.00
5988;BME280;3021;51.000;6.980;2024-03-07T09:07:06;67633.22;;;11.93;100.00
5988;BME280;3021;51.000;6.980;2024-03-07T09:09:32;67592.72;;;11.57;100.00
5988;BME280;3021;51.000;6.980;2024-03-07T09:11:57;67766.66;;;13.17;100.00
5988;BME280;3021;51.000;6.980;2024-03-07T09:14:23;67917.78;;;14.48;100.00
5988;BME280;3021;51.000;6.980;2024-03-07T09:16:48;67849.38;;;13.88;100.00
5988;BME280;3021;51.000;6.980;2024-03-07T09:19:14;67715.00;;;12.68;100.00
5988;BME280;3021;51.000;6.980;2024-03-07T09:21:45;67903.88;;;14.36;100.00
5988;BME280;3021;51.000;6.980;2024-03-07T09:24:11;67727.72;;;12.79;100.00
5988;BME280;3021;51.000;6.980;2024-03-07T09:26:36;67618.91;;;11.83;100.00
5988;BME280;3021;51.000;6.980;2024-03-07T09:29:01;67741.03;;;12.91;100.00
5988;BME280;3021;51.000;6.980;2024-03-07T09:31:31;67868.50;;;14.05;100.00
5988;BME280;3021;51.000;6.980;2024-03-07T09:33:56;67740.63;;;12.93;100.00
5988;BME280;3021;51.000;6.980;2024-03-07T09:36:23;67586.38;;;11.51;100.00
5988;BME280;3021;51.000;6.980;2024-03-07T09:38:49;67511.50;;;10.89;100.00
5988;BME280;3021;51.000;6.980;2024-03-07T09:41:15;67520.59;;;10.95;100.00
5988;BME280;3021;51.000;6.980;2024-03-07T09:43:43;67377.88;;;9.68;100.00
5988;BME280;3021;51.000;6.980;2024-03-07T09:46:10;67363.44;;;9.55;100.00
5988;BME280;3021;51.000;6.980;2024-03-07T09:48:35;67399.09;;;9.84;100.00
5988;BME280;3021;51.000;6.980;2024-03-07T09:51:02;67315.53;;;9.12;100.00
5988;BME280;3021;51.000;6.980;2024-03-07T09:53:29;67313.66;;;9.08;100.00
5988;BME280;3021;51.000;6.980;2024-03-07T09:55:56;67282.06;;;8.82;100.00
5988;BME280;3021;51.000;6.980;2024-03-07T09:58:23;67356.53;;;9.49;100.00
5988;BME280;3021;51.000;6.980;2024-03-07T10:00:51;67489.41;;;10.67;100.00
5988;BME280;3021;51.000;6.980;2024-03-07T10:03:20;67461.50;;;10.40;100.00
5988;BME280;3021;51.000;6.980;2024-03-07T10:05:47;67374.28;;;9.62;100.00
5988;BME280;3021;51.000;6.980;2024-03-07T10:08:13;67309.75;;;9.07;100.00
5988;BME280;3021;51.000;6.980;2024-03-07T10:10:39;67325.63;;;9.16;100.00
5988;BME280;3021;51.000;6.980;2024-03-07T10:13:04;67374.56;;;9.67;100.00
5988;BME280;3021;51.000;6.980;2024-03-07T10:15:32;67396.78;;;9.82;100.00
5988;BME280;3021;51.000;6.980;2024-03-07T10:17:58;67418.91;;;10.05;100.00
5988;BME280;3021;51.000;6.980;2024-03-07T10:20:24;67383.66;;;9.73;100.00
5988;BME280;3021;51.000;6.980;2024-03-07T10:22:50;67398.09;;;9.86;100.00
5988;BME280;3021;51.000;6.980;2024-03-07T10:25:20;67551.25;;;11.22;100.00
5988;BME280;3021;51.000;6.980;2024-03-07T10:27:50;67778.25;;;13.27;100.00
5988;BME280;3021;51.000;6.980;2024-03-07T10:30:16;67825.78;;;13.69;100.00
5988;BME280;3021;51.000;6.980;2024-03-07T10:32:46;67926.59;;;14.59;100.00
5988;BME280;3021;51.000;6.980;2024-03-07T10:35:12;67902.09;;;14.34;100.00
5988;BME280;3021;51.000;6.980;2024-03-07T10:37:40;67797.69;;;13.39;100.00
5988;BME280;3021;51.000;6.980;2024-03-07T10:40:06;67831.56;;;13.74;100.00
5988;BME280;3021;51.000;6.980;2024-03-07T10:42:45;68070.50;;;15.86;100.00
5988;BME280;3021;51.000;6.980;2024-03-07T10:45:12;68316.25;;;18.04;100.00
5988;BME280;3021;51.000;6.980;2024-03-07T10:47:42;68060.63;;;15.78;100.00
5988;BME280;3021;51.000;6.980;2024-03-07T10:50:23;67869.22;;;14.08;100.00
5988;BME280;3021;51.000;6.980;2024-03-07T10:55:44;67901.53;;;14.34;100.00
5988;BME280;3021;51.000;6.980;2024-03-07T11:00:38;67793.91;;;13.41;100.00
5988;BME280;3021;51.000;6.980;2024-03-07T11:03:08;67694.72;;;12.50;100.00
5988;BME280;3021;51.000;6.980;2024-03-07T11:05:34;67558.78;;;11.29;100.00
5988;BME280;3021;51.000;6.980;2024-03-07T11:08:01;67551.25;;;11.22;100.00
5988;BME280;3021;51.000;6.980;2024-03-07T11:10:36;67602.72;;;11.68;100.00
5988;BME280;3021;51.000;6.980;2024-03-07T11:13:03;67510.19;;;10.86;100.00
5988;BME280;3021;51.000;6.980;2024-03-07T11:15:30;67492.72;;;10.68;100.00
5988;BME280;3021;51.000;6.980;2024-03-07T11:17:56;67549.06;;;11.23;100.00
5988;BME280;3021;51.000;6.980;2024-03-07T11:20:26;67628.34;;;11.93;100.00
5988;BME280;3021;51.000;6.980;2024-03-07T11:22:52;67663.63;;;12.25;100.00
5988;BME280;3021;51.000;6.980;2024-03-07T11:25:21;67482.91;;;10.59;100.00
5988;BME280;3021;51.000;6.980;2024-03-07T11:27:58;67440.69;;;10.21;100.00
5988;BME280;3021;51.000;6.980;2024-03-07T11:30:24;67425.66;;;10.08;100.00
5988;BME280;3021;51.000;6.980;2024-03-07T11:32:50;67390.44;;;9.77;100.00
5988;BME280;3021;51.000;6.980;2024-03-07T11:35:31;67449.09;;;10.34;100.00
5988;BME280;3021;51.000;6.980;2024-03-07T11:37:58;67450.06;;;10.32;100.00
5988;BME280;3021;51.000;6.980;2024-03-07T11:42:54;67433.03;;;10.12;100.00
5988;BME280;3021;51.000;6.980;2024-03-07T11:45:20;67496.34;;;10.74;100.00
5988;BME280;3021;51.000;6.980;2024-03-07T11:47:56;67447.03;;;10.27;100.00
5988;BME280;3021;51.000;6.980;2024-03-07T11:50:40;67568.16;;;11.40;100.00
5988;BME280;3021;51.000;6.980;2024-03-07T11:53:07;67582.47;;;11.50;100.00
5988;BME280;3021;51.000;6.980;2024-03-07T11:55:37;67572.06;;;11.41;100.00
5988;BME280;3021;51.000;6.980;2024-03-07T11:58:20;67588.97;;;11.58;100.00
5988;BME280;3021;51.000;6.980;2024-03-07T12:00:50;67560.06;;;11.33;100.00
5988;BME280;3021;51.000;6.980;2024-03-07T12:03:20;67570.91;;;11.40;100.00
5988;BME280;3021;51.000;6.980;2024-03-07T12:05:51;67542.72;;;11.17;100.00
5988;BME280;3021;51.000;6.980;2024-03-07T12:08:17;67530.56;;;11.06;100.00
5988;BME280;3021;51.000;6.980;2024-03-07T12:10:44;67476.09;;;10.55;100.00
5988;BME280;3021;51.000;6.980;2024-03-07T12:13:10;67443.72;;;10.27;100.00
5988;BME280;3021;51.000;6.980;2024-03-07T12:15:44;67441.84;;;10.23;100.00
5988;BME280;3021;51.000;6.980;2024-03-07T12:18:10;67436.22;;;10.20;100.00
5988;BME280;3021;51.000;6.980;2024-03-07T12:20:40;67443.72;;;10.27;100.00
5988;BME280;3021;51.000;6.980;2024-03-07T12:23:06;67457.03;;;10.38;100.00
5988;BME280;3021;51.000;6.980;2024-03-07T12:25:43;67500.81;;;10.75;100.00
5988;BME280;3021;51.000;6.980;2024-03-07T12:28:10;67568.03;;;11.37;100.00
5988;BME280;3021;51.000;6.980;2024-03-07T12:33:18;67681.56;;;12.41;100.00
5988;BME280;3021;51.000;6.980;2024-03-07T12:35:47;67720.19;;;12.73;100.00
5988;BME280;3021;51.000;6.980;2024-03-07T12:38:15;67708.19;;;12.65;100.00
5988;BME280;3021;51.000;6.980;2024-03-07T12:40:45;67682.00;;;12.39;100.00
5988;BME280;3021;51.000;6.980;2024-03-07T12:43:18;67648.28;;;12.06;100.00
5988;BME280;3021;51.000;6.980;2024-03-07T12:45:47;67613.13;;;11.78;100.00
5988;BME280;3021;51.000;6.980;2024-03-07T12:48:13;67591.16;;;11.58;100.00
5988;BME280;3021;51.000;6.980;2024-03-07T12:50:39;67572.06;;;11.41;100.00
5988;BME280;3021;51.000;6.980;2024-03-07T12:53:06;67507.44;;;10.86;100.00
5988;BME280;3021;51.000;6.980;2024-03-07T12:55:37;67495.16;;;10.72;100.00
5988;BME280;3021;51.000;6.980;2024-03-07T12:58:07;67519.88;;;10.92;100.00
5988;BME280;3021;51.000;6.980;2024-03-07T13:00:32;67491.00;;;10.66;100.00
5988;BME280;3021;51.000;6.980;2024-03-07T13:02:58;67513.09;;;10.88;100.00
5988;BME280;3021;51.000;6.980;2024-03-07T13:05:24;67572.06;;;11.41;100.00
5988;BME280;3021;51.000;6.980;2024-03-07T13:07:51;67533.91;;;11.07;100.00
5988;BME280;3021;51.000;6.980;2024-03-07T13:10:17;67536.78;;;11.10;100.00
5988;BME280;3021;51.000;6.980;2024-03-07T13:12:49;67565.84;;;11.38;100.00
5988;BME280;3021;51.000;6.980;2024-03-07T13:15:15;67569.00;;;11.36;100.00
5988;BME280;3021;51.000;6.980;2024-03-07T13:17:41;67521.19;;;10.96;100.00
5988;BME280;3021;51.000;6.980;2024-03-07T13:20:11;67542.44;;;11.12;100.00
5988;BME280;3021;51.000;6.980;2024-03-07T13:22:41;67562.81;;;11.33;100.00
5988;BME280;3021;51.000;6.980;2024-03-07T13:25:16;67595.19;;;11.62;100.00
5988;BME280;3021;51.000;6.980;2024-03-07T13:30:17;67582.34;;;11.48;100.00